createdAt,value
2018-07-10T00:02:28.546Z,3.80
2018-07-10T00:07:46.243Z,3.37
2018-07-10T00:11:31.804Z,3.03
2018-07-10T00:14:00.651Z,3.50
2018-07-10T00:16:29.498Z,3.20
2018-07-10T00:18:58.405Z,3.10
2018-07-10T00:21:27.295Z,3.17
2018-07-10T00:23:56.251Z,3.47
2018-07-10T00:26:24.930Z,2.90
2018-07-10T00:28:53.701Z,3.10
2018-07-10T00:31:22.422Z,2.77
2018-07-10T00:33:51.435Z,3.23
2018-07-10T00:36:20.530Z,2.73
2018-07-10T00:38:58.763Z,2.83
2018-07-10T00:41:30.907Z,3.10
2018-07-10T00:44:00.406Z,3.20
2018-07-10T00:46:30.110Z,2.80
2018-07-10T00:48:58.954Z,2.60
2018-07-10T00:51:28.597Z,2.83
2018-07-10T00:53:57.349Z,2.70
2018-07-10T00:56:26.076Z,2.70
2018-07-10T00:58:56.061Z,2.70
2018-07-10T01:01:25.523Z,2.37
2018-07-10T01:03:54.223Z,2.50
2018-07-10T01:06:23.206Z,2.37
2018-07-10T01:08:52.023Z,2.60
2018-07-10T01:11:21.170Z,2.50
2018-07-10T01:13:51.084Z,2.20
2018-07-10T01:16:37.311Z,2.20
2018-07-10T01:19:11.468Z,2.80
2018-07-10T01:21:40.734Z,2.37
2018-07-10T01:24:09.482Z,2.23
2018-07-10T01:26:40.167Z,1.93
2018-07-10T01:29:20.698Z,2.20
2018-07-10T01:31:54.205Z,2.20
2018-07-10T01:34:23.513Z,2.27
2018-07-10T01:36:52.916Z,2.40
2018-07-10T01:39:21.618Z,2.30
2018-07-10T01:41:50.315Z,2.23
2018-07-10T01:44:19.005Z,2.20
2018-07-10T01:46:47.685Z,2.37
2018-07-10T01:49:16.566Z,2.40
2018-07-10T01:51:45.499Z,2.30
2018-07-10T01:54:14.342Z,2.20
2018-07-10T01:56:43.271Z,2.27
2018-07-10T01:59:12.513Z,2.60
2018-07-10T02:01:41.311Z,2.17
2018-07-10T02:04:10.304Z,2.80
2018-07-10T02:06:39.325Z,2.50
2018-07-10T02:09:08.293Z,2.60
2018-07-10T02:11:36.986Z,2.17
2018-07-10T02:14:05.797Z,2.43
2018-07-10T02:16:34.244Z,2.63
2018-07-10T02:19:03.477Z,2.50
2018-07-10T02:21:32.434Z,2.40
2018-07-10T02:24:01.268Z,2.90
2018-07-10T02:26:29.967Z,2.77
2018-07-10T02:28:58.964Z,2.40
2018-07-10T02:31:27.749Z,2.90
2018-07-10T02:33:56.654Z,2.60
2018-07-10T02:36:25.667Z,3.20
2018-07-10T02:38:59.984Z,3.23
2018-07-10T02:41:28.786Z,2.77
2018-07-10T02:44:01.131Z,3.30
2018-07-10T02:46:31.693Z,2.60
2018-07-10T02:49:32.463Z,2.83
2018-07-10T02:52:03.657Z,2.90
2018-07-10T02:54:38.512Z,2.80
2018-07-10T02:57:07.835Z,2.70
2018-07-10T02:59:42.606Z,2.80
2018-07-10T03:02:13.743Z,2.30
2018-07-10T03:04:42.481Z,2.40
2018-07-10T03:07:15.060Z,3.27
2018-07-10T03:09:44.885Z,2.77
2018-07-10T03:12:13.918Z,2.60
2018-07-10T03:14:43.746Z,2.90
2018-07-10T03:17:13.159Z,2.50
2018-07-10T03:19:41.884Z,3.20
2018-07-10T03:22:10.835Z,2.60
2018-07-10T03:24:40.069Z,2.87
2018-07-10T03:27:08.768Z,2.40
2018-07-10T03:29:37.699Z,2.57
2018-07-10T03:32:06.801Z,3.10
2018-07-10T03:34:35.930Z,2.43
2018-07-10T03:37:04.578Z,2.77
2018-07-10T03:39:33.327Z,2.77
2018-07-10T03:42:02.346Z,2.50
2018-07-10T03:44:31.083Z,2.50
2018-07-10T03:47:00.194Z,2.67
2018-07-10T03:49:28.879Z,2.80
2018-07-10T03:51:58.383Z,2.73
2018-07-10T03:54:27.294Z,2.90
2018-07-10T03:56:56.127Z,2.43
2018-07-10T03:59:24.940Z,2.67
2018-07-10T04:01:53.822Z,2.80
2018-07-10T04:04:23.709Z,2.77
2018-07-10T04:06:52.723Z,2.03
2018-07-10T04:09:21.641Z,2.53
2018-07-10T04:11:51.054Z,2.93
2018-07-10T04:14:21.738Z,2.67
2018-07-10T04:16:50.538Z,2.60
2018-07-10T04:19:19.918Z,2.80
2018-07-10T04:21:56.250Z,2.80
2018-07-10T04:24:24.648Z,2.60
2018-07-10T04:27:04.514Z,2.80
2018-07-10T04:31:49.131Z,2.80
2018-07-10T04:34:18.501Z,3.03
2018-07-10T04:36:48.694Z,2.80
2018-07-10T04:39:17.630Z,2.90
2018-07-10T04:41:55.528Z,2.80
2018-07-10T04:44:31.254Z,2.70
2018-07-10T04:47:07.180Z,2.73
2018-07-10T04:49:46.597Z,2.60
2018-07-10T04:52:20.893Z,2.63
2018-07-10T04:54:58.271Z,2.70
2018-07-10T04:57:34.071Z,2.13
2018-07-10T05:00:05.237Z,3.03
2018-07-10T05:02:35.121Z,2.03
2018-07-10T05:05:04.135Z,2.53
2018-07-10T05:07:32.724Z,2.50
2018-07-10T05:10:01.373Z,2.70
2018-07-10T05:12:30.138Z,2.47
2018-07-10T05:14:59.060Z,2.50
2018-07-10T05:17:27.765Z,2.33
2018-07-10T05:19:57.440Z,2.60
2018-07-10T05:22:27.580Z,2.90
2018-07-10T05:24:58.261Z,2.40
2018-07-10T05:27:27.185Z,2.50
2018-07-10T05:29:57.044Z,2.13
2018-07-10T05:32:26.130Z,2.40
2018-07-10T05:34:55.998Z,2.90
2018-07-10T05:37:36.297Z,2.67
2018-07-10T05:40:09.000Z,2.63
2018-07-10T05:42:45.036Z,2.87
2018-07-10T05:45:16.938Z,2.30
2018-07-10T05:47:50.007Z,2.60
2018-07-10T05:50:19.039Z,2.60
2018-07-10T05:52:48.090Z,2.70
2018-07-10T05:55:23.940Z,2.33
2018-07-10T05:57:52.234Z,2.67
2018-07-10T06:00:21.034Z,2.40
2018-07-10T06:02:50.184Z,2.60
2018-07-10T06:05:19.035Z,2.27
2018-07-10T06:07:49.211Z,2.20
2018-07-10T06:10:18.258Z,2.30
2018-07-10T06:12:47.379Z,2.27
2018-07-10T06:15:16.667Z,2.33
2018-07-10T06:17:45.714Z,2.43
2018-07-10T06:20:15.267Z,2.43
2018-07-10T06:22:44.509Z,2.10
2018-07-10T06:25:13.218Z,2.15
2018-07-10T06:28:03.258Z,2.03
2018-07-10T06:30:32.099Z,2.10
2018-07-10T06:33:04.523Z,2.10
2018-07-10T06:35:38.764Z,2.15
2018-07-10T06:38:16.739Z,2.07
2018-07-10T06:40:51.006Z,2.67
2018-07-10T06:43:57.622Z,2.20
2018-07-10T06:46:36.245Z,2.07
2018-07-10T06:49:40.246Z,2.37
2018-07-10T06:52:11.537Z,2.47
2018-07-10T06:55:15.378Z,2.20
2018-07-10T06:57:53.405Z,2.30
2018-07-10T07:00:22.141Z,2.30
2018-07-10T07:02:50.931Z,1.87
2018-07-10T07:05:20.070Z,2.03
2018-07-10T07:07:48.899Z,2.10
2018-07-10T07:10:18.082Z,2.40
2018-07-10T07:12:47.385Z,2.53
2018-07-10T07:15:18.984Z,2.70
2018-07-10T07:17:47.474Z,2.13
2018-07-10T07:20:15.760Z,1.90
2018-07-10T07:22:44.605Z,2.00
2018-07-10T07:25:13.464Z,2.00
2018-07-10T07:27:42.171Z,2.10
2018-07-10T07:30:11.111Z,2.07
2018-07-10T07:32:40.134Z,1.90
2018-07-10T07:35:08.969Z,2.10
2018-07-10T07:37:39.918Z,2.80
2018-07-10T07:40:09.973Z,2.23
2018-07-10T07:42:39.256Z,2.27
2018-07-10T07:45:07.713Z,2.50
2018-07-10T07:47:36.349Z,2.50
2018-07-10T07:50:05.252Z,2.43
2018-07-10T07:52:33.977Z,2.37
2018-07-10T07:55:04.029Z,2.07
2018-07-10T07:57:32.866Z,2.30
2018-07-10T08:00:01.815Z,2.37
2018-07-10T08:02:30.723Z,2.40
2018-07-10T08:05:01.456Z,2.10
2018-07-10T08:07:30.420Z,2.30
2018-07-10T08:10:00.322Z,2.60
2018-07-10T08:12:30.909Z,2.33
2018-07-10T08:15:01.730Z,2.97
2018-07-10T08:17:30.890Z,3.00
2018-07-10T08:20:00.471Z,2.60
2018-07-10T08:22:29.803Z,2.80
2018-07-10T08:24:58.542Z,3.67
2018-07-10T08:27:28.259Z,3.20
2018-07-10T08:29:57.639Z,2.87
2018-07-10T08:32:28.684Z,2.90
2018-07-10T08:34:57.636Z,3.17
2018-07-10T08:37:26.708Z,2.90
2018-07-10T08:39:55.600Z,3.13
2018-07-10T08:42:24.974Z,2.70
2018-07-10T08:44:54.230Z,2.80
2018-07-10T08:47:23.646Z,2.50
2018-07-10T08:49:52.506Z,2.37
2018-07-10T08:52:21.707Z,2.77
2018-07-10T08:54:50.645Z,3.30
2018-07-10T08:57:20.246Z,3.00
2018-07-10T08:59:49.428Z,3.00
2018-07-10T09:02:18.470Z,3.30
2018-07-10T09:04:47.346Z,2.87
2018-07-10T09:07:16.401Z,2.83
2018-07-10T09:09:45.185Z,3.30
2018-07-10T09:12:14.173Z,3.07
2018-07-10T09:14:43.239Z,3.27
2018-07-10T09:17:12.086Z,3.60
2018-07-10T09:19:41.411Z,3.50
2018-07-10T09:22:12.496Z,3.57
2018-07-10T09:24:50.931Z,3.60
2018-07-10T09:27:21.680Z,3.37
2018-07-10T09:29:50.874Z,3.50
2018-07-10T09:32:25.410Z,3.20
2018-07-10T09:34:55.982Z,3.40
2018-07-10T09:37:30.321Z,3.23
2018-07-10T09:40:04.719Z,3.70
2018-07-10T09:42:35.467Z,2.90
2018-07-10T09:45:05.362Z,3.53
2018-07-10T09:47:34.177Z,3.23
2018-07-10T09:50:03.491Z,3.20
2018-07-10T09:52:33.292Z,3.80
2018-07-10T09:55:02.540Z,3.77
2018-07-10T09:57:32.228Z,3.60
2018-07-10T10:00:00.779Z,3.10
2018-07-10T10:02:32.841Z,3.40
2018-07-10T10:05:05.180Z,3.50
2018-07-10T10:07:34.560Z,3.67
2018-07-10T10:10:04.030Z,3.53
2018-07-10T10:12:33.644Z,3.07
2018-07-10T10:15:03.341Z,3.30
2018-07-10T10:17:32.894Z,3.27
2018-07-10T10:20:02.108Z,4.00
2018-07-10T10:22:32.442Z,2.90
2018-07-10T10:25:02.704Z,3.30
2018-07-10T10:27:31.847Z,4.40
2018-07-10T10:30:01.444Z,4.22
2018-07-10T10:32:30.223Z,4.07
2018-07-10T10:35:01.388Z,3.70
2018-07-10T10:37:30.288Z,3.80
2018-07-10T10:40:00.689Z,3.53
2018-07-10T10:42:29.606Z,3.60
2018-07-10T10:45:00.882Z,3.77
2018-07-10T10:47:30.862Z,3.40
2018-07-10T10:50:01.850Z,3.83
2018-07-10T10:52:30.812Z,3.63
2018-07-10T10:54:59.849Z,3.20
2018-07-10T10:57:33.473Z,3.20
2018-07-10T11:00:02.634Z,3.13
2018-07-10T11:02:31.883Z,3.40
2018-07-10T11:05:00.922Z,3.50
2018-07-10T11:07:33.150Z,3.70
2018-07-10T11:10:02.214Z,3.40
2018-07-10T11:12:31.960Z,4.63
2018-07-10T11:15:02.418Z,4.87
2018-07-10T11:18:03.147Z,4.73
2018-07-10T11:21:09.641Z,5.17
2018-07-10T11:23:56.349Z,5.90
2018-07-10T11:26:56.290Z,4.80
2018-07-10T11:29:25.200Z,5.20
2018-07-10T11:31:54.154Z,4.87
2018-07-10T11:34:23.099Z,4.90
2018-07-10T11:36:51.903Z,4.50
2018-07-10T11:39:20.687Z,4.47
2018-07-10T11:41:53.310Z,4.60
2018-07-10T11:44:22.133Z,4.13
2018-07-10T11:46:51.109Z,4.20
2018-07-10T11:49:20.495Z,4.37
2018-07-10T11:51:49.905Z,4.00
2018-07-10T11:54:18.705Z,3.53
2018-07-10T11:56:47.520Z,3.90
2018-07-10T11:59:15.819Z,4.30
2018-07-10T12:01:44.706Z,3.70
2018-07-10T12:04:13.879Z,4.07
2018-07-10T12:06:52.618Z,3.63
2018-07-10T12:09:21.372Z,4.10
2018-07-10T12:11:50.157Z,3.10
2018-07-10T12:14:18.882Z,3.03
2018-07-10T12:16:47.910Z,5.07
2018-07-10T12:19:17.076Z,3.73
2018-07-10T12:21:46.046Z,3.97
2018-07-10T12:24:15.197Z,2.60
2018-07-10T12:26:44.323Z,3.53
2018-07-10T12:29:13.147Z,2.80
2018-07-10T12:31:42.049Z,2.80
2018-07-10T12:34:10.882Z,3.10
2018-07-10T12:36:39.545Z,4.20
2018-07-10T12:39:08.593Z,3.40
2018-07-10T12:41:37.342Z,4.90
2018-07-10T12:44:06.367Z,3.87
2018-07-10T12:46:35.258Z,2.50
2018-07-10T12:49:04.095Z,2.60
2018-07-10T12:51:33.135Z,2.90
2018-07-10T12:54:02.038Z,3.53
2018-07-10T12:56:30.875Z,5.23
2018-07-10T12:58:59.633Z,5.37
2018-07-10T13:01:28.456Z,4.20
2018-07-10T13:03:57.424Z,4.97
2018-07-10T13:06:26.319Z,8.47
2018-07-10T13:08:55.070Z,8.73
2018-07-10T13:11:24.241Z,9.03
2018-07-10T13:13:53.253Z,6.43
2018-07-10T13:16:22.135Z,5.90
2018-07-10T13:18:51.191Z,6.03
2018-07-10T13:21:20.019Z,4.80
2018-07-10T13:23:49.063Z,6.20
2018-07-10T13:26:18.121Z,6.10
2018-07-10T13:28:47.349Z,5.80
2018-07-10T13:31:16.517Z,6.53
2018-07-10T13:33:45.628Z,4.40
2018-07-10T13:36:14.505Z,5.00
2018-07-10T13:38:43.516Z,5.13
2018-07-10T13:41:12.513Z,6.10
2018-07-10T13:43:41.543Z,5.30
2018-07-10T13:46:10.454Z,6.30
2018-07-10T13:48:39.580Z,7.23
2018-07-10T13:51:08.601Z,5.30
2018-07-10T13:53:37.346Z,5.93
2018-07-10T13:56:06.420Z,7.93
2018-07-10T13:58:35.078Z,10.50
2018-07-10T14:01:06.194Z,10.10
2018-07-10T14:03:35.551Z,10.23
2018-07-10T14:06:05.283Z,9.57
2018-07-10T14:08:34.541Z,9.53
2018-07-10T14:11:03.665Z,9.73
2018-07-10T14:13:32.515Z,12.43
2018-07-10T14:16:01.223Z,11.40
2018-07-10T14:18:30.311Z,10.33
2018-07-10T14:21:02.570Z,12.47
2018-07-10T14:23:31.582Z,10.07
2018-07-10T14:26:00.548Z,8.33
2018-07-10T14:28:29.334Z,9.27
2018-07-10T14:30:58.877Z,10.63
2018-07-10T14:33:27.912Z,10.60
2018-07-10T14:35:56.714Z,9.57
2018-07-10T14:38:26.767Z,7.20
2018-07-10T14:40:56.590Z,5.20
2018-07-10T14:43:29.380Z,9.40
2018-07-10T14:46:17.930Z,10.50
2018-07-10T14:48:51.403Z,9.90
2018-07-10T14:51:26.533Z,10.40
2018-07-10T14:53:55.474Z,10.37
2018-07-10T14:56:24.546Z,8.47
2018-07-10T14:58:53.528Z,10.00
2018-07-10T15:01:22.662Z,9.60
2018-07-10T15:03:51.573Z,10.37
2018-07-10T15:06:20.413Z,8.80
2018-07-10T15:08:49.203Z,8.20
2018-07-10T15:11:18.059Z,8.97
2018-07-10T15:14:04.457Z,10.93
2018-07-10T15:16:38.877Z,11.33
2018-07-10T15:19:07.810Z,10.03
2018-07-10T15:21:36.903Z,9.47
2018-07-10T15:24:06.913Z,8.97
2018-07-10T15:26:36.117Z,9.40
2018-07-10T15:29:04.922Z,8.90
2018-07-10T15:31:33.828Z,8.33
2018-07-10T15:34:02.877Z,10.00
2018-07-10T15:36:31.870Z,8.90
2018-07-10T15:39:00.996Z,7.97
2018-07-10T15:41:31.507Z,7.67
2018-07-10T15:44:00.295Z,8.23
2018-07-10T15:46:29.307Z,7.60
2018-07-10T15:48:58.148Z,9.43
2018-07-10T15:51:27.102Z,8.90
2018-07-10T15:53:55.873Z,9.10
2018-07-10T15:56:24.666Z,9.30
2018-07-10T15:58:53.403Z,8.77
2018-07-10T16:01:22.379Z,7.80
2018-07-10T16:03:51.527Z,8.07
2018-07-10T16:06:19.943Z,7.40
2018-07-10T16:08:48.938Z,7.10
2018-07-10T16:11:17.913Z,7.43
2018-07-10T16:13:47.306Z,7.30
2018-07-10T16:16:17.242Z,6.80
2018-07-10T16:18:56.437Z,8.05
2018-07-10T16:21:30.908Z,7.60
2018-07-10T16:24:02.276Z,6.80
2018-07-10T16:26:31.089Z,7.70
2018-07-10T16:28:59.917Z,6.83
2018-07-10T16:31:28.795Z,7.67
2018-07-10T16:33:57.894Z,6.93
2018-07-10T16:36:27.372Z,7.07
2018-07-10T16:38:56.164Z,7.37
2018-07-10T16:41:30.231Z,7.53
2018-07-10T16:44:04.046Z,7.23
2018-07-10T16:46:32.939Z,7.70
2018-07-10T16:49:15.166Z,7.87
2018-07-10T16:51:50.016Z,7.97
2018-07-10T16:54:21.145Z,8.50
2018-07-10T16:56:50.326Z,7.87
2018-07-10T16:59:18.990Z,8.50
2018-07-10T17:01:47.795Z,7.50
2018-07-10T17:04:16.910Z,7.63
2018-07-10T17:06:46.326Z,6.87
2018-07-10T17:09:15.164Z,6.73
2018-07-10T17:11:43.999Z,6.10
2018-07-10T17:14:13.260Z,6.50
2018-07-10T17:16:42.222Z,5.83
2018-07-10T17:19:11.332Z,5.50
2018-07-10T17:21:40.130Z,6.20
2018-07-10T17:24:09.010Z,5.53
2018-07-10T17:26:37.812Z,6.67
2018-07-10T17:29:09.891Z,5.80
2018-07-10T17:31:38.658Z,6.10
2018-07-10T17:34:07.796Z,5.40
2018-07-10T17:36:36.502Z,5.77
2018-07-10T17:39:06.441Z,5.73
2018-07-10T17:41:36.942Z,4.87
2018-07-10T17:44:08.777Z,4.93
2018-07-10T17:46:38.212Z,4.87
2018-07-10T17:49:07.422Z,4.13
2018-07-10T17:51:36.303Z,5.30
2018-07-10T17:54:05.276Z,4.80
2018-07-10T17:56:34.529Z,5.53
2018-07-10T17:59:06.702Z,5.60
2018-07-10T18:01:36.261Z,5.20
2018-07-10T18:04:05.343Z,5.70
2018-07-10T18:06:34.508Z,5.43
2018-07-10T18:09:03.486Z,5.70
2018-07-10T18:11:32.418Z,5.00
2018-07-10T18:14:01.179Z,5.10
2018-07-10T18:16:34.651Z,4.50
2018-07-10T18:19:05.395Z,4.20
2018-07-10T18:21:35.455Z,4.50
2018-07-10T18:24:05.301Z,4.43
2018-07-10T18:26:34.093Z,4.13
2018-07-10T18:29:03.060Z,4.60
2018-07-10T18:31:32.761Z,4.27
2018-07-10T18:34:02.564Z,4.03
2018-07-10T18:36:32.310Z,4.13
2018-07-10T18:39:01.842Z,3.40
2018-07-10T18:41:30.625Z,4.37
2018-07-10T18:43:59.472Z,4.07
2018-07-10T18:46:28.557Z,3.80
2018-07-10T18:48:58.788Z,3.80
2018-07-10T18:51:27.492Z,4.20
2018-07-10T18:53:56.442Z,3.40
2018-07-10T18:56:25.204Z,3.37
2018-07-10T18:59:01.534Z,3.23
2018-07-10T19:02:43.971Z,3.40
2018-07-10T19:05:12.789Z,3.58
2018-07-10T19:07:42.226Z,3.50
2018-07-10T19:10:11.675Z,2.80
2018-07-10T19:12:41.880Z,3.23
2018-07-10T19:15:10.957Z,3.30
2018-07-10T19:17:39.794Z,2.93
2018-07-10T19:20:12.092Z,3.03
2018-07-10T19:22:54.453Z,2.93
2018-07-10T19:25:24.198Z,3.30
2018-07-10T19:27:55.838Z,3.33
2018-07-10T19:30:30.810Z,3.60
2018-07-10T19:33:00.839Z,3.30
2018-07-10T19:35:29.787Z,2.37
2018-07-10T19:37:58.831Z,3.30
2018-07-10T19:40:28.063Z,3.10
2018-07-10T19:42:57.912Z,3.70
2018-07-10T19:45:26.884Z,2.70
2018-07-10T19:47:56.490Z,3.07
2018-07-10T19:50:33.185Z,2.80
2018-07-10T19:53:02.326Z,2.80
2018-07-10T19:55:31.125Z,2.50
2018-07-10T19:58:19.236Z,3.23
2018-07-10T20:00:55.201Z,3.30
2018-07-10T20:04:04.565Z,3.27
2018-07-10T20:06:43.947Z,3.17
2018-07-10T20:09:17.349Z,3.10
2018-07-10T20:11:54.488Z,2.90
2018-07-10T20:14:25.233Z,3.20
2018-07-10T20:16:57.853Z,2.90
2018-07-10T20:19:42.540Z,3.07
2018-07-10T20:22:18.058Z,2.90
2018-07-10T20:25:07.945Z,2.90
2018-07-10T20:27:49.693Z,2.70
2018-07-10T20:31:28.603Z,3.00
2018-07-10T20:34:05.738Z,2.87
2018-07-10T20:36:34.654Z,3.43
2018-07-10T20:39:05.023Z,3.33
2018-07-10T20:41:41.234Z,3.67
2018-07-10T20:44:09.970Z,3.50
2018-07-10T20:46:43.691Z,3.50
2018-07-10T20:49:12.445Z,3.57
2018-07-10T20:51:49.589Z,3.70
2018-07-10T20:54:23.965Z,3.33
2018-07-10T20:57:08.668Z,3.13
2018-07-10T20:59:42.317Z,2.60
2018-07-10T21:02:19.894Z,2.87
2018-07-10T21:05:11.227Z,3.10
2018-07-10T21:07:55.888Z,3.23
2018-07-10T21:10:34.828Z,3.20
2018-07-10T21:13:06.950Z,3.90
2018-07-10T21:15:47.299Z,3.53
2018-07-10T21:18:24.802Z,3.23
2018-07-10T21:21:05.747Z,3.10
2018-07-10T21:24:47.931Z,3.50
2018-07-10T21:28:33.998Z,3.00
2018-07-10T21:32:09.637Z,2.70
2018-07-10T21:34:46.730Z,3.20
2018-07-10T21:37:35.951Z,3.53
2018-07-10T21:40:41.804Z,3.33
2018-07-10T21:43:23.648Z,3.07
2018-07-10T21:47:00.629Z,3.57
2018-07-10T21:49:36.946Z,3.67
2018-07-10T21:52:06.191Z,3.77
2018-07-10T21:54:35.179Z,3.90
2018-07-10T21:57:04.106Z,3.80
2018-07-10T21:59:34.012Z,3.70
2018-07-10T22:02:04.702Z,3.63
2018-07-10T22:04:36.836Z,3.93
2018-07-10T22:07:10.364Z,3.80
2018-07-10T22:09:40.261Z,3.70
2018-07-10T22:12:12.403Z,3.40
2018-07-10T22:14:41.734Z,3.20
2018-07-10T22:17:19.274Z,3.50
2018-07-10T22:19:50.951Z,3.80
2018-07-10T22:22:27.916Z,3.37
2018-07-10T22:24:58.629Z,4.27
2018-07-10T22:27:27.348Z,3.90
2018-07-10T22:30:03.811Z,3.83
2018-07-10T22:32:44.966Z,4.00
2018-07-10T22:35:15.247Z,3.83
2018-07-10T22:37:44.203Z,4.70
2018-07-10T22:40:13.229Z,3.77
2018-07-10T22:42:42.034Z,3.53
2018-07-10T22:45:10.781Z,3.60
2018-07-10T22:47:40.895Z,3.80
2018-07-10T22:50:18.645Z,3.83
2018-07-10T22:52:56.015Z,4.10
2018-07-10T22:55:30.140Z,3.90
2018-07-10T22:58:06.826Z,3.27
2018-07-10T23:00:37.881Z,3.40
2018-07-10T23:03:17.764Z,3.37
2018-07-10T23:05:48.077Z,4.50
2018-07-10T23:08:18.613Z,3.40
2018-07-10T23:10:48.106Z,4.00
2018-07-10T23:13:18.259Z,3.80
2018-07-10T23:15:47.526Z,3.37
2018-07-10T23:18:16.974Z,3.63
2018-07-10T23:20:45.757Z,3.93
2018-07-10T23:23:14.645Z,3.37
2018-07-10T23:25:44.189Z,3.60
2018-07-10T23:28:13.011Z,3.93
2018-07-10T23:30:42.796Z,3.83
2018-07-10T23:33:17.455Z,4.00
2018-07-10T23:35:50.132Z,5.03
2018-07-10T23:38:39.659Z,4.47
2018-07-10T23:41:13.294Z,4.03
2018-07-10T23:43:44.459Z,4.10
2018-07-10T23:46:31.554Z,3.87
2018-07-10T23:49:16.741Z,3.97
2018-07-10T23:51:56.458Z,4.50
2018-07-10T23:54:25.306Z,3.63
2018-07-10T23:56:53.989Z,4.30
2018-07-10T23:59:22.714Z,4.60
